KFXE

Fort Lauderdale Executive Airport

Fort Lauderdale, Florida, USA
METAR KFXE 212253Z 11009KT 10SM CLR 31/22 A3006 RMK AO2 SLP181 T03060222
Observed Flight Rules
Aug-21 @ 22:53 UTC (53 minutes ago) Visual Flight Rules
Wind Visibility Clouds
110° at 9 knots 10 miles
  • Clear skies
Temperatures Readings
Current 31°C / 88°F
Dewpoint 22°C / 72°F
Humidity 59%
Altimeter 30.06" Hg
Pressure 1018.1 hPa
Elevation 6
METAR KFXE 212253Z 11009KT 10SM CLR 31/22 A3006 RMK AO2 SLP181 T03060222
Observed Flight Rules
Aug-21 @ 22:53 UTC
(53 minutes ago)
VFR
Wind Visibility
110° at 9 knots 10 miles
Clouds
  • Clear skies
Temperature Dewpoint
31°C / 88°F 22°C / 72°F
Humidity Altimeter Pressure
59% 30.06" Hg 1018.1 hPa